LPPD

Details ICAO LPPD (PDL)
Name PONTA DELGADA
Region Portugal
Timezone Atlantic/Azores (UTC+0.0)
Plans Departing 777
Arriving 925
Stats Elevation 257 ft / 78 m (AMSL)
Location 37.742000° -25.697500°
Runways 1
Magnetic Variation 8.158° W
Sunrise 2019-05-23 06:28:51 UTC / 2019-05-23 06:28:51 Local
Sunset 2019-05-23 20:53:04 UTC / 2019-05-23 20:53:04 Local
Advertisement - Login to hide

Runways

ID Width Length Bearing (true/mag) Surface Threshold Overrun Markings Lighting
12 148 ft / 45 m 8,257 ft / 2,517 m 111.64° / 119.79° ASPHALT 92 ft / 28 m 361 ft / 110 m PREC-APP CENTERLINE EDGE THRESHOLD ALSF-II
30 148 ft / 45 m 8,257 ft / 2,517 m 291.65° / 299.81° ASPHALT 784 ft / 239 m 0 ft / 0 m PREC-APP CENTERLINE EDGE THRESHOLD ALSF-II

Approach Navaids

Runway Type Ident Frequency Range Bearing (true/mag) Slope Elevation
30 DME NL 109.50 MHz 18 nm / 33 km - - 259 ft / 79 m (AMSL)
30 LOC-ILS NL 109.50 MHz 18 nm / 33 km 291.78° / 299.94° - 259 ft / 79 m (AMSL)
30 GS NL 109.50 MHz 10 nm / 19 km 292.56° / 300.72° 3.00° 259 ft / 79 m (AMSL)

Map

Weather


0- 5 10 15 20 25 30 35+ Temperature / °C

Clouds and Precipitation
Forecast for 2019-05-24 00:00 UTC. Updated 3 hours ago

Ground ~20,000 ft ~40,000 ft Winds

METAR

LPPD 240030Z 17004KT 9999 FEW018 17/16 Q1026

TAF

TAF LPPD 232300Z 2400/2424 16007KT 9999 SCT020

Frequencies

Tower 118.30 MHz
Approach 119.40 MHz
Warning: Do not use this data for real-world aviation or navigation. No guarantee of current accuracy is given.